Weather at Cabo Rojo Airport

Public forecast

Using degrees Celsius for public forecast. Weather courtesy of forecast.io.

Closest aviation weather report (METAR) to Cabo Rojo Airport

Closest report is Maria Montez International Airport, 35.6 nm (66.0 km) ENE. Retrieved 2021/07/30 18:00 UTC (53 minutes ago):

MDBH 301800Z 13016KT 9999 FEW020CB FEW022 33/24 Q1016 CB/W

Closest aviation forecast (TAF) to Cabo Rojo Airport

Closest forecast is Maria Montez International Airport, 35.6 nm (66.0 km) ENE. Retrieved 2021/07/30 18:53 UTC (10 seconds ago):

TAF MDBH 301600Z 3018/3118 13015KT 9999 FEW020CB FEW022